Time;durP1;ratioP1;P1;durP2;ratioP2;P2;SDS_P1;SDS_P2;PMS_P1;PMS_P2;Temp;Humidity;BMP_temperature;BMP_pressure;BME280_temperature;BME280_humidity;BME280_pressure;Samples;Min_cycle;Max_cycle;Signal;HPM_P1;HPM_P2
2022/08/23 00:01:11;;;;;;;2.42;2.22;;;22.80;57.40;;;;;;6111621;23;20178;-88
2022/08/23 00:03:38;;;;;;;2.50;2.30;;;22.80;57.40;;;;;;6137206;23;20131;-88
2022/08/23 00:06:04;;;;;;;2.80;2.47;;;22.70;57.30;;;;;;6111518;23;20175;-88
2022/08/23 00:08:30;;;;;;;2.33;2.13;;;22.80;57.40;;;;;;6136610;23;20528;-88
2022/08/23 00:10:56;;;;;;;2.38;2.17;;;22.80;57.40;;;;;;6136266;23;20522;-88
2022/08/23 00:13:25;;;;;;;2.88;2.67;;;22.80;57.50;;;;;;6111533;23;20154;-87
2022/08/23 00:15:55;;;;;;;2.50;2.30;;;22.70;57.40;;;;;;6086553;23;20190;-87
2022/08/23 00:18:23;;;;;;;2.90;2.60;;;22.70;57.40;;;;;;6110722;23;20241;-87
2022/08/23 00:20:52;;;;;;;2.50;2.30;;;22.80;57.50;;;;;;6135038;23;20150;-88
2022/08/23 00:23:18;;;;;;;2.63;2.40;;;22.80;57.50;;;;;;6135205;23;20237;-88
2022/08/23 00:25:44;;;;;;;2.70;2.50;;;22.70;57.40;;;;;;6111321;23;20174;-88
2022/08/23 00:28:10;;;;;;;3.00;2.70;;;22.70;57.40;;;;;;6111679;23;20153;-88
2022/08/23 00:30:36;;;;;;;3.60;2.50;;;22.80;57.50;;;;;;6136290;23;20153;-88
2022/08/23 00:33:02;;;;;;;2.70;2.40;;;22.70;57.40;;;;;;6111956;23;20578;-87
2022/08/23 00:35:30;;;;;;;1.92;1.83;;;22.80;57.50;;;;;;6110715;23;20231;-88
2022/08/23 00:37:57;;;;;;;2.63;2.42;;;22.80;58.20;;;;;;6160431;23;20143;-88
2022/08/23 00:40:23;;;;;;;2.55;2.35;;;22.80;57.50;;;;;;6135969;23;20151;-88
2022/08/23 00:48:43;;;;;;;2.65;2.45;;;22.80;57.50;;;;;;6143051;23;20135;-88
2022/08/23 00:51:14;;;;;;;2.85;2.63;;;22.70;57.50;;;;;;6135665;23;20209;-87
2022/08/23 00:53:49;;;;;;;2.63;2.42;;;22.70;57.40;;;;;;6111551;23;20229;-87
2022/08/23 00:56:16;;;;;;;2.47;2.20;;;22.70;57.50;;;;;;6112847;23;20150;-88
2022/08/23 00:58:45;;;;;;;2.75;2.55;;;22.70;57.50;;;;;;6135735;23;20598;-87
2022/08/23 01:01:15;;;;;;;2.78;2.42;;;22.80;57.50;;;;;;6112936;23;20230;-88
2022/08/23 01:03:42;;;;;;;2.50;2.30;;;22.70;57.40;;;;;;6111792;23;20586;-88
2022/08/23 01:06:15;;;;;;;2.47;2.28;;;22.70;57.50;;;;;;6136441;23;20166;-88
2022/08/23 01:08:48;;;;;;;2.60;2.40;;;22.80;57.50;;;;;;6136475;23;20138;-87
2022/08/23 01:11:19;;;;;;;2.67;2.47;;;22.70;57.50;;;;;;6087760;23;20285;-87
2022/08/23 01:13:59;;;;;;;2.60;2.40;;;22.70;57.60;;;;;;6136696;23;20563;-87
2022/08/23 01:16:46;;;;;;;2.60;2.40;;;22.80;57.60;;;;;;6112282;23;20245;-88
2022/08/23 01:19:35;;;;;;;2.47;2.28;;;22.70;57.50;;;;;;6089926;23;20165;-88
2022/08/23 01:22:13;;;;;;;2.65;2.20;;;22.70;57.60;;;;;;6066205;23;20653;-88
2022/08/23 01:24:39;;;;;;;2.70;2.47;;;22.70;57.60;;;;;;6111213;23;20161;-87
2022/08/23 01:27:05;;;;;;;2.75;2.53;;;22.70;57.60;;;;;;6160134;23;20159;-88
2022/08/23 01:29:30;;;;;;;2.50;2.30;;;22.70;57.60;;;;;;6135247;23;20150;-89
2022/08/23 01:31:58;;;;;;;2.60;2.35;;;22.70;57.60;;;;;;6135153;23;20233;-87
2022/08/23 01:34:26;;;;;;;2.55;2.35;;;22.70;57.60;;;;;;6134406;23;20154;-88
2022/08/23 01:36:54;;;;;;;2.60;2.40;;;22.70;57.60;;;;;;6085942;23;20155;-88
2022/08/23 01:39:21;;;;;;;2.45;2.25;;;22.80;57.70;;;;;;6134714;23;20150;-87
2022/08/23 01:41:54;;;;;;;2.80;2.60;;;22.70;57.70;;;;;;6109480;23;20159;-88
2022/08/23 01:44:25;;;;;;;2.70;2.50;;;22.70;57.70;;;;;;6109948;23;20193;-88
2022/08/23 01:46:53;;;;;;;2.65;2.45;;;22.70;57.70;;;;;;6134488;23;20626;-88
2022/08/23 01:49:23;;;;;;;2.70;2.50;;;22.70;57.70;;;;;;6109662;23;20154;-88
2022/08/23 01:51:50;;;;;;;3.03;2.53;;;22.70;57.80;;;;;;6109973;23;20575;-87
2022/08/23 01:54:17;;;;;;;4.00;2.50;;;22.70;57.80;;;;;;6085838;23;20154;-87
2022/08/23 01:56:44;;;;;;;2.80;2.60;;;22.70;57.80;;;;;;6085667;23;20166;-87
2022/08/23 01:59:12;;;;;;;2.65;2.45;;;22.80;57.80;;;;;;6133985;23;20590;-87
2022/08/23 02:01:39;;;;;;;2.47;2.28;;;22.70;57.80;;;;;;6109512;23;20158;-87
2022/08/23 02:04:05;;;;;;;2.60;2.40;;;22.70;57.80;;;;;;6134191;23;20231;-88
2022/08/23 02:06:31;;;;;;;2.50;2.30;;;22.70;57.80;;;;;;6135241;23;20496;-88
2022/08/23 02:09:00;;;;;;;2.60;2.40;;;22.70;57.80;;;;;;6111366;23;20147;-87
2022/08/23 02:11:32;;;;;;;2.50;2.30;;;22.70;57.80;;;;;;6135712;23;20517;-87
2022/08/23 02:13:59;;;;;;;2.58;2.38;;;22.70;57.80;;;;;;6111338;23;20143;-87
2022/08/23 02:16:29;;;;;;;2.50;2.30;;;22.80;57.90;;;;;;6110622;23;20147;-88
2022/08/23 02:18:56;;;;;;;2.75;2.55;;;22.70;57.80;;;;;;6111521;23;20143;-87
2022/08/23 02:21:22;;;;;;;2.70;2.50;;;22.70;57.90;;;;;;6159588;23;20142;-87
2022/08/23 02:23:48;;;;;;;2.42;2.22;;;22.70;57.80;;;;;;6135360;23;20131;-88
2022/08/23 02:26:14;;;;;;;2.28;2.08;;;22.70;57.80;;;;;;6134874;23;20185;-87
2022/08/23 02:28:40;;;;;;;2.60;2.40;;;22.70;57.90;;;;;;6135120;23;20166;-89
2022/08/23 02:31:08;;;;;;;2.75;2.55;;;22.70;57.90;;;;;;6111024;23;20150;-87
2022/08/23 02:33:35;;;;;;;2.30;2.10;;;22.70;57.90;;;;;;6111420;23;20146;-88
2022/08/23 02:36:01;;;;;;;2.40;2.20;;;22.70;57.90;;;;;;6111003;23;20229;-88
2022/08/23 02:38:28;;;;;;;3.42;2.30;;;22.70;57.90;;;;;;6110692;23;20154;-88
2022/08/23 02:40:54;;;;;;;2.25;2.05;;;22.70;57.90;;;;;;6111133;23;20155;-88
2022/08/23 02:43:19;;;;;;;2.50;2.30;;;22.70;57.90;;;;;;6134694;23;20151;-88
2022/08/23 02:45:45;;;;;;;2.70;2.50;;;22.70;57.90;;;;;;6111311;23;20171;-88
2022/08/23 02:48:11;;;;;;;2.60;2.40;;;22.70;58.00;;;;;;6160153;23;20193;-88
2022/08/23 02:50:36;;;;;;;2.40;2.20;;;22.70;58.00;;;;;;6110376;23;20146;-88
2022/08/23 02:53:03;;;;;;;2.45;2.25;;;22.70;58.00;;;;;;6159265;23;20226;-88
2022/08/23 02:55:28;;;;;;;2.53;2.33;;;22.60;57.90;;;;;;6110601;23;20648;-87
2022/08/23 02:57:56;;;;;;;2.50;2.30;;;22.70;58.00;;;;;;6134764;23;20163;-88
2022/08/23 03:00:25;;;;;;;2.40;2.20;;;22.70;58.00;;;;;;6110785;23;20151;-88
2022/08/23 03:02:57;;;;;;;2.70;2.50;;;22.70;58.10;;;;;;6111864;23;20155;-87
2022/08/23 03:05:25;;;;;;;2.50;2.30;;;22.70;58.10;;;;;;6110904;23;20628;-88
2022/08/23 03:07:52;;;;;;;2.50;2.30;;;22.70;58.10;;;;;;6111295;23;20238;-87
2022/08/23 03:10:19;;;;;;;2.63;2.17;;;22.70;58.10;;;;;;6087452;23;20190;-88
2022/08/23 03:12:46;;;;;;;2.60;2.33;;;22.60;58.00;;;;;;6111283;23;20150;-88
2022/08/23 03:15:11;;;;;;;2.47;2.28;;;22.70;58.10;;;;;;6111413;23;20197;-87
2022/08/23 03:17:40;;;;;;;2.83;2.63;;;22.70;58.10;;;;;;6136425;23;20155;-88
2022/08/23 03:20:07;;;;;;;2.85;2.58;;;22.70;58.10;;;;;;6161039;23;20590;-88
2022/08/23 03:22:33;;;;;;;2.47;2.28;;;22.70;58.20;;;;;;6112310;23;20153;-88
2022/08/23 03:24:58;;;;;;;2.70;2.50;;;22.60;58.00;;;;;;6136478;23;20135;-87
2022/08/23 03:27:25;;;;;;;2.45;2.25;;;22.60;58.10;;;;;;6136364;23;20159;-88
2022/08/23 03:29:50;;;;;;;2.40;2.20;;;22.60;58.10;;;;;;6112080;23;20157;-88
2022/08/23 03:32:21;;;;;;;2.50;2.30;;;22.60;58.10;;;;;;6136467;23;20135;-88
2022/08/23 03:34:52;;;;;;;2.35;2.15;;;22.60;58.80;;;;;;6087108;23;20154;-88
2022/08/23 03:37:19;;;;;;;2.42;2.22;;;22.60;58.20;;;;;;6135656;23;20162;-87
2022/08/23 03:39:45;;;;;;;2.13;2.03;;;22.60;58.20;;;;;;6136438;23;20532;-88
2022/08/23 03:42:11;;;;;;;2.60;2.40;;;22.70;58.20;;;;;;6111853;23;20162;-88
2022/08/23 03:44:37;;;;;;;2.40;2.20;;;22.60;58.20;;;;;;6111686;23;20216;-87
2022/08/23 03:47:04;;;;;;;3.45;2.58;;;22.60;58.20;;;;;;6112169;23;20253;-87
2022/08/23 03:49:30;;;;;;;2.72;2.53;;;22.60;58.20;;;;;;6112433;23;20150;-88
2022/08/23 03:51:59;;;;;;;2.30;2.10;;;22.60;58.20;;;;;;6111901;23;20485;-88
2022/08/23 03:54:26;;;;;;;2.30;2.10;;;22.60;58.20;;;;;;6112736;23;20170;-88
2022/08/23 03:56:55;;;;;;;3.17;2.38;;;22.60;58.20;;;;;;6112378;23;20157;-87
2022/08/23 03:59:21;;;;;;;2.45;2.25;;;22.60;58.20;;;;;;6111996;23;20155;-87
2022/08/23 04:01:47;;;;;;;2.47;2.28;;;22.60;58.30;;;;;;6111654;23;20605;-87
2022/08/23 04:04:14;;;;;;;2.40;2.20;;;22.60;58.30;;;;;;6112168;23;20158;-87
2022/08/23 04:06:41;;;;;;;2.30;2.10;;;22.60;58.30;;;;;;6136064;23;20603;-87
2022/08/23 04:09:07;;;;;;;2.28;2.08;;;22.60;58.30;;;;;;6111587;23;20155;-88
2022/08/23 04:11:33;;;;;;;2.25;2.10;;;22.60;58.30;;;;;;6111295;23;20209;-88
2022/08/23 04:13:59;;;;;;;2.40;2.20;;;22.60;58.30;;;;;;6135943;23;20150;-87
2022/08/23 04:16:29;;;;;;;2.42;2.22;;;22.60;58.30;;;;;;6112263;23;20537;-88
2022/08/23 04:18:56;;;;;;;2.60;2.40;;;22.60;58.30;;;;;;6111343;23;20190;-88
2022/08/23 04:21:22;;;;;;;2.42;2.20;;;22.60;58.30;;;;;;6136429;23;20143;-88
2022/08/23 04:23:48;;;;;;;2.97;2.35;;;22.60;58.30;;;;;;6136606;23;20135;-88
2022/08/23 04:26:15;;;;;;;2.40;2.20;;;22.60;58.40;;;;;;6111847;23;20204;-88
2022/08/23 04:28:41;;;;;;;2.50;2.30;;;22.60;58.30;;;;;;6135977;23;20135;-87
2022/08/23 04:31:07;;;;;;;2.50;2.30;;;22.60;58.40;;;;;;6136088;23;20161;-88
2022/08/23 04:33:34;;;;;;;3.15;2.30;;;22.60;58.40;;;;;;6160789;23;20178;-88
2022/08/23 04:36:00;;;;;;;2.42;2.22;;;22.60;58.40;;;;;;6136591;23;20223;-88
2022/08/23 04:38:26;;;;;;;2.40;2.20;;;22.60;58.50;;;;;;6111840;23;20151;-88
2022/08/23 04:43:33;;;;;;;3.40;2.58;;;22.60;58.50;;;;;;6141953;23;20135;-88
2022/08/23 04:45:59;;;;;;;2.28;2.10;;;22.60;58.50;;;;;;6111147;23;20261;-87
2022/08/23 04:48:27;;;;;;;2.35;2.15;;;22.60;58.50;;;;;;6135795;23;20489;-88
2022/08/23 04:50:52;;;;;;;2.38;2.17;;;22.60;58.60;;;;;;6111866;23;20151;-88
2022/08/23 04:53:19;;;;;;;2.38;2.17;;;22.50;58.60;;;;;;6111024;23;20200;-87
2022/08/23 04:55:45;;;;;;;2.50;2.30;;;22.60;58.70;;;;;;6136573;23;20154;-88
2022/08/23 04:58:13;;;;;;;2.20;2.00;;;22.60;58.70;;;;;;6135948;23;20146;-88
2022/08/23 05:00:42;;;;;;;2.47;2.28;;;22.50;58.70;;;;;;6134145;23;20166;-88
2022/08/23 05:03:12;;;;;;;2.30;2.10;;;22.60;58.70;;;;;;6134625;23;20166;-88
2022/08/23 05:05:40;;;;;;;2.30;2.10;;;22.60;58.80;;;;;;6134846;23;20226;-88
2022/08/23 05:08:08;;;;;;;2.30;2.10;;;22.60;58.90;;;;;;6136206;23;20131;-88
2022/08/23 05:10:34;;;;;;;2.05;1.95;;;22.60;59.20;;;;;;6111179;23;20197;-88
2022/08/23 05:12:59;;;;;;;2.30;2.10;;;22.50;59.80;;;;;;6135286;23;20186;-89
2022/08/23 05:15:25;;;;;;;2.47;2.28;;;22.50;59.90;;;;;;6110787;23;20143;-89
2022/08/23 05:17:51;;;;;;;2.10;1.90;;;22.40;60.20;;;;;;6134535;23;20135;-88
2022/08/23 05:20:16;;;;;;;2.45;2.05;;;22.40;60.50;;;;;;6135416;23;20147;-88
2022/08/23 05:22:42;;;;;;;2.28;2.08;;;22.40;60.70;;;;;;6135217;23;20214;-87
2022/08/23 05:25:11;;;;;;;2.03;1.90;;;22.30;60.90;;;;;;6135630;23;20142;-88
2022/08/23 05:27:37;;;;;;;2.10;2.00;;;22.30;61.30;;;;;;6136178;23;20174;-88
2022/08/23 05:30:04;;;;;;;2.85;1.92;;;22.30;61.40;;;;;;6110924;23;20473;-87
2022/08/23 05:32:32;;;;;;;2.20;2.00;;;22.20;61.60;;;;;;6111323;23;20150;-88
2022/08/23 05:35:03;;;;;;;2.30;2.10;;;22.20;61.80;;;;;;6135311;23;20135;-88
2022/08/23 05:37:29;;;;;;;2.10;1.90;;;22.10;61.80;;;;;;6110305;23;20158;-88
2022/08/23 05:39:56;;;;;;;2.00;1.90;;;22.10;62.10;;;;;;6135124;23;20575;-87
2022/08/23 05:42:26;;;;;;;1.83;1.73;;;22.10;62.10;;;;;;6134514;23;20154;-87
2022/08/23 05:44:54;;;;;;;2.03;1.90;;;22.10;62.00;;;;;;6134936;23;20150;-88
2022/08/23 05:47:25;;;;;;;2.38;2.10;;;22.10;62.10;;;;;;6109989;23;20186;-88
2022/08/23 05:49:53;;;;;;;2.53;2.20;;;22.10;62.10;;;;;;6110732;23;20613;-88
2022/08/23 05:52:20;;;;;;;2.28;2.08;;;22.10;62.30;;;;;;6134361;23;20157;-88
2022/08/23 05:54:51;;;;;;;1.98;1.88;;;22.00;62.10;;;;;;6085923;23;20158;-88
2022/08/23 05:57:18;;;;;;;2.10;1.92;;;22.00;62.40;;;;;;6134416;23;20259;-88
2022/08/23 05:59:44;;;;;;;2.10;2.00;;;22.10;62.50;;;;;;6134204;23;20159;-88
2022/08/23 06:02:10;;;;;;;2.22;2.03;;;22.00;62.60;;;;;;6135146;23;20158;-88
2022/08/23 06:04:35;;;;;;;1.80;1.70;;;22.00;62.70;;;;;;6111110;23;20150;-88
2022/08/23 06:07:04;;;;;;;2.17;1.92;;;22.00;62.80;;;;;;6110894;23;20257;-88
2022/08/23 06:09:30;;;;;;;2.03;1.90;;;22.00;63.00;;;;;;6112050;23;20201;-88
2022/08/23 06:11:58;;;;;;;2.00;1.90;;;22.00;63.20;;;;;;6110866;23;20190;-87
2022/08/23 06:14:27;;;;;;;2.15;1.95;;;22.00;63.20;;;;;;6111889;23;20249;-88
2022/08/23 06:16:55;;;;;;;2.38;2.17;;;22.00;63.30;;;;;;6085841;23;20159;-89
2022/08/23 06:19:24;;;;;;;1.80;1.70;;;22.00;63.40;;;;;;6134394;23;20158;-87
2022/08/23 06:21:52;;;;;;;1.65;1.55;;;21.90;63.40;;;;;;6134286;23;20605;-88
2022/08/23 06:24:22;;;;;;;2.20;2.00;;;22.00;63.70;;;;;;6086209;23;20159;-88
2022/08/23 06:26:52;;;;;;;2.00;1.88;;;22.00;63.60;;;;;;6110233;23;20178;-88
2022/08/23 06:29:22;;;;;;;2.15;1.95;;;22.00;63.60;;;;;;6110132;23;20186;-88
2022/08/23 06:31:49;;;;;;;1.98;1.88;;;22.00;63.70;;;;;;6134099;23;20150;-88
2022/08/23 06:34:25;;;;;;;2.28;2.08;;;22.00;63.80;;;;;;6135584;23;20131;-88
2022/08/23 06:36:55;;;;;;;2.25;2.05;;;22.00;64.10;;;;;;6114388;23;20249;-88
2022/08/23 06:39:24;;;;;;;2.20;2.00;;;22.00;64.00;;;;;;6113291;23;20490;-88
2022/08/23 06:41:50;;;;;;;2.20;2.00;;;21.90;64.00;;;;;;6137164;23;20158;-88
2022/08/23 06:44:17;;;;;;;2.30;2.10;;;21.90;64.10;;;;;;6113013;23;20154;-88
2022/08/23 06:46:46;;;;;;;2.28;2.08;;;22.00;64.50;;;;;;6137145;23;20192;-88
2022/08/23 06:49:12;;;;;;;2.38;1.92;;;21.90;64.20;;;;;;6137696;23;20131;-87
2022/08/23 06:51:43;;;;;;;2.17;2.00;;;21.90;64.50;;;;;;6113102;23;20579;-88
2022/08/23 06:54:11;;;;;;;2.35;1.80;;;21.90;64.50;;;;;;6113764;23;20155;-88
2022/08/23 06:56:37;;;;;;;2.30;2.10;;;22.00;64.60;;;;;;6161825;23;20139;-88
2022/08/23 06:59:05;;;;;;;2.15;1.95;;;22.00;64.60;;;;;;6137483;23;20139;-88
2022/08/23 07:01:39;;;;;;;2.22;2.03;;;22.00;64.60;;;;;;6113808;23;20159;-88
2022/08/23 07:04:11;;;;;;;3.33;1.90;;;22.00;64.70;;;;;;6136289;23;20158;-88
2022/08/23 07:06:40;;;;;;;2.17;1.98;;;22.00;64.90;;;;;;6112327;23;20182;-88
2022/08/23 07:09:09;;;;;;;1.80;1.70;;;22.00;65.10;;;;;;6088115;23;20155;-88
2022/08/23 07:11:38;;;;;;;2.15;1.95;;;21.90;64.90;;;;;;6111055;23;20198;-88
2022/08/23 07:14:11;;;;;;;2.67;2.30;;;21.90;65.10;;;;;;6112045;23;20158;-88
2022/08/23 07:16:44;;;;;;;2.05;1.85;;;22.00;65.00;;;;;;6112246;23;20162;-88
2022/08/23 07:19:16;;;;;;;2.30;2.10;;;22.00;65.30;;;;;;6112289;23;20159;-89
2022/08/23 07:21:45;;;;;;;2.30;2.10;;;22.00;65.20;;;;;;6136144;23;20165;-88
2022/08/23 07:24:14;;;;;;;2.03;1.90;;;22.00;65.40;;;;;;6112031;23;20155;-88
2022/08/23 07:26:45;;;;;;;2.08;1.98;;;22.00;65.20;;;;;;6111613;23;20236;-88
2022/08/23 07:29:14;;;;;;;1.92;1.77;;;22.00;65.80;;;;;;6111929;23;20233;-88
2022/08/23 07:31:45;;;;;;;2.20;2.00;;;22.00;65.70;;;;;;6112807;23;20159;-88
2022/08/23 07:34:13;;;;;;;2.20;2.10;;;22.10;66.00;;;;;;6112347;23;20154;-88
2022/08/23 07:36:43;;;;;;;2.35;2.13;;;22.00;65.90;;;;;;6111447;23;20151;-88
2022/08/23 07:39:11;;;;;;;2.17;1.98;;;22.00;66.10;;;;;;6088061;23;20155;-88
2022/08/23 07:41:41;;;;;;;2.00;1.90;;;22.00;66.10;;;;;;6111949;23;20153;-88
2022/08/23 07:44:08;;;;;;;1.95;1.85;;;22.10;66.20;;;;;;6111636;23;20155;-88
2022/08/23 07:46:39;;;;;;;2.13;1.92;;;22.10;66.30;;;;;;6136855;23;20174;-87
2022/08/23 07:49:11;;;;;;;2.10;1.90;;;22.10;66.30;;;;;;6136084;23;20154;-88
2022/08/23 07:51:47;;;;;;;2.42;2.20;;;22.10;66.30;;;;;;6111348;23;20151;-87
2022/08/23 07:54:15;;;;;;;2.17;1.98;;;22.10;66.40;;;;;;6087669;23;20206;-88
2022/08/23 07:56:45;;;;;;;2.28;2.08;;;22.10;66.50;;;;;;6111211;23;20158;-88
2022/08/23 07:59:13;;;;;;;2.35;2.13;;;22.10;66.30;;;;;;6111291;23;20155;-88
2022/08/23 08:01:42;;;;;;;2.80;2.08;;;22.10;66.50;;;;;;6135396;23;20594;-87
2022/08/23 08:04:15;;;;;;;1.95;1.75;;;22.10;66.50;;;;;;6136391;23;20158;-88
2022/08/23 08:06:45;;;;;;;2.28;2.17;;;22.20;66.60;;;;;;6136625;23;20189;-87
2022/08/23 08:09:19;;;;;;;2.80;1.90;;;22.10;66.30;;;;;;6136511;23;20158;-88
2022/08/23 08:11:47;;;;;;;2.33;2.13;;;22.10;66.30;;;;;;6112175;23;20252;-88
2022/08/23 08:14:18;;;;;;;4.85;2.13;;;22.20;66.50;;;;;;6110905;23;20151;-88
2022/08/23 08:16:47;;;;;;;2.53;2.20;;;22.10;66.70;;;;;;6109885;23;20205;-88
2022/08/23 08:19:20;;;;;;;2.72;2.22;;;22.20;66.60;;;;;;6087818;23;20160;-88
2022/08/23 08:21:51;;;;;;;2.40;2.20;;;22.20;66.50;;;;;;6112836;23;20155;-88
2022/08/23 08:24:18;;;;;;;2.47;2.10;;;22.30;66.50;;;;;;6111833;23;20150;-88
2022/08/23 08:26:53;;;;;;;4.05;2.15;;;22.30;66.10;;;;;;6110218;23;20241;-88
2022/08/23 08:29:20;;;;;;;2.38;2.00;;;22.20;66.30;;;;;;6139292;23;20645;-88
2022/08/23 08:31:50;;;;;;;2.28;2.08;;;22.30;66.60;;;;;;6137739;23;20166;-88
2022/08/23 08:34:17;;;;;;;2.00;1.85;;;22.30;66.60;;;;;;6113269;23;20194;-88
2022/08/23 08:36:50;;;;;;;3.20;2.28;;;22.30;66.50;;;;;;6090297;23;20161;-88
2022/08/23 08:39:24;;;;;;;2.28;2.08;;;22.30;66.30;;;;;;6116897;23;20150;-88
2022/08/23 08:42:10;;;;;;;5.78;2.50;;;22.40;66.40;;;;;;6116771;23;20180;-88
2022/08/23 08:44:53;;;;;;;22.65;3.70;;;22.40;66.00;;;;;;6192194;23;20211;-88
2022/08/23 08:47:21;;;;;;;9.95;2.55;;;22.40;66.00;;;;;;6142370;23;20185;-88
2022/08/23 08:49:57;;;;;;;31.98;3.55;;;22.40;66.20;;;;;;6166445;23;20135;-88
2022/08/23 08:52:32;;;;;;;12.45;2.70;;;22.40;65.90;;;;;;6115842;23;20150;-87
2022/08/23 08:55:06;;;;;;;23.58;3.47;;;22.30;66.20;;;;;;6139535;23;20685;-88
2022/08/23 08:57:39;;;;;;;16.45;2.83;;;22.40;66.00;;;;;;6114244;23;20157;-87
2022/08/23 09:00:13;;;;;;;7.68;2.50;;;22.40;66.00;;;;;;6115686;23;20212;-88
2022/08/23 09:02:49;;;;;;;13.90;2.55;;;22.40;66.10;;;;;;6114645;23;20212;-87
2022/08/23 09:05:17;;;;;;;15.65;2.95;;;22.40;65.70;;;;;;6114387;23;20229;-88
2022/08/23 09:08:23;;;;;;;7.55;2.28;;;22.40;66.50;;;;;;6110144;23;20682;-88
2022/08/23 09:10:52;;;;;;;15.75;2.70;;;22.40;65.50;;;;;;6136547;23;20194;-88
2022/08/23 09:13:39;;;;;;;10.27;2.72;;;22.50;65.30;;;;;;6111873;23;20159;-88
2022/08/23 09:16:25;;;;;;;9.90;2.28;;;22.50;65.00;;;;;;6092716;23;20223;-89
2022/08/23 09:18:53;;;;;;;9.27;2.90;;;22.50;64.80;;;;;;6111002;23;20674;-88
2022/08/23 09:21:24;;;;;;;15.00;3.05;;;22.50;64.70;;;;;;6044856;23;20164;-88
2022/08/23 09:23:54;;;;;;;29.65;3.38;;;22.60;64.80;;;;;;5975446;23;20209;-87
2022/08/23 09:26:29;;;;;;;15.48;3.40;;;22.60;64.60;;;;;;5997456;23;20185;-88
2022/08/23 09:29:10;;;;;;;8.70;2.33;;;22.60;64.30;;;;;;6020302;23;20208;-88
2022/08/23 09:31:40;;;;;;;13.63;2.85;;;22.60;63.80;;;;;;6047427;23;20157;-88
2022/08/23 09:34:06;;;;;;;11.63;2.53;;;22.60;63.80;;;;;;6043833;23;20242;-88
2022/08/23 09:36:34;;;;;;;10.57;2.67;;;22.70;63.70;;;;;;5997046;23;20160;-88
2022/08/23 09:39:04;;;;;;;13.43;3.00;;;22.70;63.50;;;;;;6038320;23;20675;-88
2022/08/23 09:41:38;;;;;;;12.93;2.83;;;22.70;63.70;;;;;;6024327;23;20160;-88
2022/08/23 09:44:08;;;;;;;8.88;2.55;;;22.70;63.60;;;;;;6050064;23;20159;-88
2022/08/23 09:46:41;;;;;;;13.70;3.00;;;22.60;63.50;;;;;;6052465;23;20185;-88
2022/08/23 09:49:26;;;;;;;10.68;2.63;;;22.70;63.40;;;;;;6052061;23;20489;-88
2022/08/23 09:51:54;;;;;;;10.90;2.70;;;22.70;63.30;;;;;;6038725;23;20159;-88
2022/08/23 09:54:40;;;;;;;10.77;2.60;;;22.70;63.30;;;;;;6054263;23;20520;-88
2022/08/23 09:57:13;;;;;;;8.05;2.25;;;22.70;62.90;;;;;;6077540;23;20182;-87
2022/08/23 09:59:50;;;;;;;5.78;2.38;;;22.70;62.80;;;;;;6076621;23;20152;-88
2022/08/23 10:02:29;;;;;;;8.82;2.70;;;22.80;62.50;;;;;;6078664;23;20190;-88
2022/08/23 10:05:00;;;;;;;8.93;2.90;;;22.90;62.40;;;;;;6073345;23;20160;-88
2022/08/23 10:07:37;;;;;;;9.02;2.42;;;22.80;62.10;;;;;;6070934;23;20188;-87
2022/08/23 10:10:31;;;;;;;10.57;2.80;;;22.80;62.00;;;;;;6069447;23;20159;-88
2022/08/23 10:13:02;;;;;;;11.77;2.55;;;22.90;62.00;;;;;;6079179;23;20164;-88
2022/08/23 10:15:51;;;;;;;7.57;2.30;;;22.90;61.90;;;;;;6069026;23;20161;-88
2022/08/23 10:18:53;;;;;;;7.97;2.78;;;22.90;61.80;;;;;;6073450;23;20601;-88
2022/08/23 10:21:39;;;;;;;7.93;2.33;;;22.90;61.70;;;;;;6072756;23;20167;-89
2022/08/23 10:24:31;;;;;;;7.57;2.30;;;22.90;61.50;;;;;;6127969;23;20179;-87
2022/08/23 10:30:13;;;;;;;10.77;2.45;;;22.90;61.50;;;;;;6119525;23;20170;-89
2022/08/23 10:33:13;;;;;;;11.68;3.08;;;23.00;61.40;;;;;;6060502;23;20178;-89
2022/08/23 10:36:02;;;;;;;7.82;2.40;;;22.90;61.60;;;;;;6072877;23;20660;-88
2022/08/23 10:38:36;;;;;;;7.53;2.92;;;23.00;61.40;;;;;;6114209;23;20142;-88
2022/08/23 10:41:31;;;;;;;10.38;2.70;;;23.00;61.40;;;;;;6112394;23;20152;-88
2022/08/23 10:44:05;;;;;;;12.75;2.70;;;23.00;61.40;;;;;;6112309;23;20216;-88
2022/08/23 10:46:36;;;;;;;12.93;2.78;;;23.00;61.20;;;;;;6159843;23;20242;-88
2022/08/23 10:49:06;;;;;;;10.82;2.60;;;23.00;61.30;;;;;;6113331;23;20579;-88
2022/08/23 10:51:36;;;;;;;7.65;2.85;;;23.00;61.20;;;;;;6110173;23;20150;-88
2022/08/23 10:54:22;;;;;;;4.68;2.60;;;23.00;61.20;;;;;;6133769;23;20155;-89
2022/08/23 10:56:52;;;;;;;12.07;2.63;;;23.00;61.10;;;;;;6113968;23;20233;-88
2022/08/23 10:59:28;;;;;;;5.72;2.30;;;23.10;61.00;;;;;;6110641;23;20226;-88
2022/08/23 11:02:00;;;;;;;5.60;2.47;;;23.10;60.90;;;;;;6110802;23;20158;-88
2022/08/23 11:04:53;;;;;;;7.63;2.25;;;23.00;60.90;;;;;;6109781;23;20614;-88
2022/08/23 11:07:30;;;;;;;4.28;2.42;;;23.00;61.40;;;;;;6116143;23;20182;-89
2022/08/23 11:10:26;;;;;;;4.00;2.38;;;23.00;61.20;;;;;;6103296;23;20227;-89
2022/08/23 11:12:58;;;;;;;4.85;2.55;;;23.00;61.20;;;;;;6105364;23;20174;-88
2022/08/23 11:16:01;;;;;;;4.40;2.72;;;23.00;61.30;;;;;;6057400;23;20156;-88
2022/08/23 11:18:43;;;;;;;5.55;2.53;;;23.00;61.20;;;;;;6128621;23;20151;-88
2022/08/23 11:21:32;;;;;;;7.43;2.65;;;23.00;61.30;;;;;;6105279;23;20506;-88
2022/08/23 11:24:23;;;;;;;5.82;2.40;;;23.00;61.40;;;;;;6130580;23;20156;-88
2022/08/23 11:27:04;;;;;;;10.55;2.60;;;23.00;61.40;;;;;;6130285;23;20491;-89
2022/08/23 11:29:33;;;;;;;5.43;2.58;;;23.10;61.20;;;;;;6106962;23;20157;-88
2022/08/23 11:32:13;;;;;;;8.80;2.78;;;23.10;61.30;;;;;;6106033;23;20254;-88
2022/08/23 11:34:53;;;;;;;5.28;2.50;;;23.00;61.30;;;;;;6130413;23;20221;-88
2022/08/23 11:37:25;;;;;;;4.82;2.33;;;23.00;61.40;;;;;;6106908;23;20591;-88
2022/08/23 11:40:06;;;;;;;4.57;2.20;;;23.00;61.50;;;;;;6134086;23;20136;-88
2022/08/23 11:42:49;;;;;;;5.03;2.42;;;23.00;61.50;;;;;;6113760;23;20652;-88
2022/08/23 11:45:45;;;;;;;3.08;2.30;;;23.00;61.30;;;;;;6114856;23;20150;-88
2022/08/23 11:48:35;;;;;;;7.28;2.65;;;23.10;61.50;;;;;;6139352;23;20200;-88
2022/08/23 11:51:39;;;;;;;6.18;2.78;;;23.00;61.10;;;;;;6162409;23;20134;-88
2022/08/23 11:54:30;;;;;;;3.88;2.47;;;23.10;61.30;;;;;;6096309;23;20174;-88
2022/08/23 11:57:03;;;;;;;6.15;2.60;;;23.00;61.40;;;;;;6160945;23;20161;-89
2022/08/23 12:00:07;;;;;;;5.55;2.30;;;23.00;61.40;;;;;;6089658;23;20157;-88
2022/08/23 12:02:51;;;;;;;5.13;2.65;;;23.00;61.40;;;;;;6101897;23;20150;-87
2022/08/23 12:05:34;;;;;;;4.03;2.65;;;23.00;61.30;;;;;;6117034;23;20224;-88
2022/08/23 12:08:25;;;;;;;3.47;2.42;;;23.00;61.20;;;;;;6139984;23;20151;-88
2022/08/23 12:11:01;;;;;;;3.22;2.80;;;23.10;61.10;;;;;;6140939;23;20220;-87
2022/08/23 12:13:55;;;;;;;3.92;2.83;;;23.10;61.20;;;;;;6113542;23;20182;-87
2022/08/23 12:16:34;;;;;;;3.50;2.55;;;23.10;61.20;;;;;;6141780;23;20209;-88
2022/08/23 12:19:08;;;;;;;4.88;2.88;;;23.10;61.30;;;;;;6055992;23;20156;-88
2022/08/23 12:21:44;;;;;;;3.08;2.80;;;23.10;61.30;;;;;;6008821;23;20194;-87
2022/08/23 12:24:29;;;;;;;2.97;2.50;;;23.00;61.20;;;;;;6104385;23;20275;-87
2022/08/23 12:27:25;;;;;;;5.22;2.70;;;23.10;61.20;;;;;;6106159;23;20180;-88
2022/08/23 12:30:19;;;;;;;3.25;2.70;;;23.10;61.00;;;;;;6110040;23;20160;-86
2022/08/23 12:33:26;;;;;;;3.63;2.50;;;23.10;61.00;;;;;;6100499;23;20196;-87
2022/08/23 12:36:08;;;;;;;4.18;2.85;;;23.10;60.90;;;;;;6101204;23;20167;-88
2022/08/23 12:38:57;;;;;;;4.97;2.47;;;23.10;60.90;;;;;;6100575;23;20235;-87
2022/08/23 12:41:58;;;;;;;5.93;2.47;;;23.10;61.80;;;;;;6102804;23;20472;-88
2022/08/23 12:45:02;;;;;;;2.80;2.60;;;23.10;60.60;;;;;;6093549;23;20157;-88
2022/08/23 12:47:28;;;;;;;2.55;2.35;;;23.10;60.50;;;;;;6063030;23;20190;-89
2022/08/23 12:50:19;;;;;;;3.08;2.78;;;23.10;60.50;;;;;;6134417;23;20190;-87
2022/08/23 12:52:56;;;;;;;2.85;2.58;;;23.10;60.50;;;;;;6130737;23;20222;-86
2022/08/23 12:55:21;;;;;;;4.70;2.70;;;23.10;60.40;;;;;;6129719;23;20178;-88
2022/08/23 12:57:55;;;;;;;2.85;2.30;;;23.00;60.50;;;;;;6105060;23;20595;-88
2022/08/23 13:00:29;;;;;;;2.70;2.30;;;23.10;60.50;;;;;;6109819;23;20151;-88
2022/08/23 13:03:05;;;;;;;2.40;2.20;;;23.10;60.50;;;;;;6162405;23;20242;-87
2022/08/23 13:05:37;;;;;;;2.90;2.47;;;23.10;60.20;;;;;;6059902;23;20238;-89
2022/08/23 13:08:14;;;;;;;3.00;2.65;;;23.10;60.10;;;;;;6115922;23;20164;-88
2022/08/23 13:10:40;;;;;;;2.97;2.45;;;23.10;60.10;;;;;;6087489;23;20194;-88
2022/08/23 13:13:10;;;;;;;2.67;2.47;;;23.10;60.00;;;;;;6141453;23;20147;-86
2022/08/23 13:19:17;;;;;;;2.67;2.45;;;23.10;59.80;;;;;;6199575;23;20197;-87
2022/08/23 13:21:52;;;;;;;2.70;2.50;;;23.10;59.70;;;;;;6149235;23;20166;-87
2022/08/23 13:24:33;;;;;;;3.53;2.60;;;23.10;59.80;;;;;;6150844;23;20146;-87
2022/08/23 13:27:27;;;;;;;2.70;2.45;;;23.10;59.90;;;;;;6171526;23;20273;-87